Weiz, Austria
Current Conditions -  °F | °C
As of 5:20 AM on Wednesday 22 Oct 2014 (Local Time) from LOWG Reporting Station
Moderate Rain Moderate Rain  
Wind Chill: 40°   Ceiling: 5000
Heat Index: 45°   Visibility: 6mi
Dew Point: 37°   Wind: 9mph
Humidity: 76%   Direction: 330°NNW
Pressure: 29.74"   Gusts: NA
Location:  47.22°N, 15.62°E
Report Text: LOWG 220320Z 33008KT 260V360 9999 RA SCT035 FEW045CB BKN050 07/03 Q1007 TEMPO -RA
Loading
Personal Weather Stations






























Interactive Weather Map
Tropical Storm Tracking
New forecast layout! Learn more

10-Day Weather Forecast

Advertisements
Track Severe Weather on mobile